Time;durP1;ratioP1;P1;durP2;ratioP2;P2;SDS_P1;SDS_P2;PMS_P1;PMS_P2;Temp;Humidity;BMP_temperature;BMP_pressure;BME280_temperature;BME280_humidity;BME280_pressure;Samples;Min_cycle;Max_cycle;Signal;HPM_P1;HPM_P2
2023/06/04 00:00:25;;;;;;;5.70;4.47;;;14.10;99.90;;;;;;5018758;28;20030;-77
2023/06/04 00:02:51;;;;;;;7.13;4.20;;;14.10;99.90;;;;;;5036617;28;20422;-78
2023/06/04 00:05:17;;;;;;;5.60;4.53;;;14.10;99.90;;;;;;5018323;28;20179;-77
2023/06/04 00:07:43;;;;;;;6.50;4.60;;;14.20;99.90;;;;;;5035805;28;20036;-77
2023/06/04 00:10:09;;;;;;;7.93;4.65;;;14.10;99.90;;;;;;5018285;28;20036;-76
2023/06/04 00:12:35;;;;;;;7.82;4.82;;;14.20;99.90;;;;;;5035718;28;20032;-76
2023/06/04 00:15:01;;;;;;;7.75;4.85;;;14.20;99.90;;;;;;5016954;28;20029;-75
2023/06/04 00:17:27;;;;;;;8.93;5.50;;;14.30;99.90;;;;;;5018157;28;20061;-76
2023/06/04 00:19:52;;;;;;;6.47;4.28;;;14.20;99.90;;;;;;5018486;28;20021;-75
2023/06/04 00:22:18;;;;;;;6.60;4.80;;;14.20;99.90;;;;;;5035934;28;20029;-75
2023/06/04 00:24:44;;;;;;;6.22;4.00;;;14.20;99.90;;;;;;5018265;28;20032;-75
2023/06/04 00:27:09;;;;;;;5.50;4.43;;;14.20;99.90;;;;;;5017962;28;20116;-76
2023/06/04 00:29:36;;;;;;;8.52;5.38;;;14.30;99.90;;;;;;5018004;28;20116;-75
2023/06/04 00:32:02;;;;;;;5.65;4.63;;;14.20;99.90;;;;;;5018265;28;20481;-76
2023/06/04 00:34:28;;;;;;;7.00;4.53;;;14.20;99.90;;;;;;5017581;28;20021;-75
2023/06/04 00:36:53;;;;;;;7.45;4.57;;;14.30;99.90;;;;;;5035448;28;20040;-77
2023/06/04 00:39:19;;;;;;;5.63;4.72;;;14.30;99.90;;;;;;5035688;28;20033;-76
2023/06/04 00:41:45;;;;;;;9.75;4.57;;;14.40;99.90;;;;;;5018278;28;20543;-75
2023/06/04 00:44:11;;;;;;;7.03;4.80;;;14.40;99.90;;;;;;5035645;28;20029;-76
2023/06/04 00:46:37;;;;;;;10.43;5.20;;;14.40;99.90;;;;;;5035050;28;20485;-77
2023/06/04 00:49:05;;;;;;;6.05;4.50;;;14.40;99.90;;;;;;5016932;28;20025;-77
2023/06/04 00:51:32;;;;;;;8.13;4.50;;;14.30;99.90;;;;;;5018001;28;20033;-76
2023/06/04 00:53:59;;;;;;;6.63;4.30;;;14.40;99.90;;;;;;5035615;28;20408;-76
2023/06/04 00:56:24;;;;;;;5.60;4.38;;;14.40;99.90;;;;;;5035156;28;20030;-77
2023/06/04 00:58:52;;;;;;;7.75;4.95;;;14.40;99.90;;;;;;5017935;28;20026;-75
2023/06/04 01:01:22;;;;;;;8.65;4.50;;;14.30;99.90;;;;;;5017953;28;20172;-75
2023/06/04 01:03:51;;;;;;;6.68;4.60;;;14.30;99.90;;;;;;5034340;28;20489;-77
2023/06/04 01:06:30;;;;;;;9.18;4.60;;;14.30;99.90;;;;;;5017208;28;20052;-75
2023/06/04 01:08:58;;;;;;;6.45;4.05;;;14.30;99.90;;;;;;5034968;28;20029;-75
2023/06/04 01:11:34;;;;;;;7.25;4.25;;;14.40;99.90;;;;;;5017413;28;20084;-75
2023/06/04 01:14:00;;;;;;;6.50;4.57;;;14.40;99.90;;;;;;5016995;28;20429;-77
2023/06/04 01:16:29;;;;;;;7.47;5.30;;;14.40;99.90;;;;;;5017771;28;20405;-76
2023/06/04 01:18:59;;;;;;;8.70;4.80;;;14.40;99.90;;;;;;5016928;28;20130;-76
2023/06/04 01:21:26;;;;;;;7.97;4.15;;;14.50;99.90;;;;;;5017041;28;20419;-76
2023/06/04 01:24:00;;;;;;;5.43;4.45;;;14.50;99.90;;;;;;5017399;28;20474;-75
2023/06/04 01:26:31;;;;;;;6.45;4.35;;;14.50;99.90;;;;;;5017408;28;20029;-76
2023/06/04 01:28:58;;;;;;;7.63;4.97;;;14.50;99.90;;;;;;5016874;28;20018;-77
2023/06/04 01:31:25;;;;;;;6.70;4.25;;;14.50;99.90;;;;;;5034897;28;20095;-77
2023/06/04 01:33:57;;;;;;;6.82;4.72;;;14.60;99.90;;;;;;5017135;28;20389;-76
2023/06/04 01:36:24;;;;;;;7.65;4.82;;;14.50;99.90;;;;;;5016881;28;20025;-75
2023/06/04 01:38:50;;;;;;;9.35;5.50;;;14.50;99.90;;;;;;5034543;28;20026;-77
2023/06/04 01:41:16;;;;;;;8.35;4.18;;;14.60;99.90;;;;;;5034549;28;20030;-77
2023/06/04 01:43:42;;;;;;;8.15;4.68;;;14.60;99.90;;;;;;5034626;28;20060;-76
2023/06/04 01:46:07;;;;;;;7.28;4.35;;;14.50;99.90;;;;;;5017110;28;20025;-76
2023/06/04 01:48:33;;;;;;;7.03;4.75;;;14.60;99.90;;;;;;5016360;28;20025;-76
2023/06/04 01:51:00;;;;;;;5.57;4.70;;;14.60;99.90;;;;;;5035104;28;20026;-76
2023/06/04 01:53:25;;;;;;;5.03;3.92;;;14.60;99.90;;;;;;5016758;28;20017;-77
2023/06/04 01:55:52;;;;;;;3.97;3.58;;;14.60;99.90;;;;;;5034418;28;20546;-75
2023/06/04 01:58:22;;;;;;;4.70;4.20;;;14.70;99.90;;;;;;5016948;28;20168;-76
2023/06/04 02:00:49;;;;;;;6.03;4.60;;;14.80;99.90;;;;;;5017023;28;20029;-75
2023/06/04 02:03:15;;;;;;;6.65;3.85;;;14.70;99.90;;;;;;5016944;28;20537;-75
2023/06/04 02:05:44;;;;;;;4.75;3.58;;;14.70;99.90;;;;;;5034570;28;20053;-75
2023/06/04 02:08:11;;;;;;;5.85;3.67;;;14.70;99.90;;;;;;5016835;28;20103;-77
2023/06/04 02:10:36;;;;;;;7.57;4.07;;;14.60;99.90;;;;;;5033093;28;20028;-75
2023/06/04 02:13:03;;;;;;;7.28;4.80;;;14.70;99.90;;;;;;5015734;28;20025;-75
2023/06/04 02:15:30;;;;;;;7.20;4.80;;;14.60;99.90;;;;;;5019026;28;20402;-76
2023/06/04 02:17:58;;;;;;;7.55;4.45;;;14.70;99.90;;;;;;5020046;28;20460;-77
2023/06/04 02:20:28;;;;;;;5.75;3.95;;;14.70;99.90;;;;;;5020331;28;20079;-76
2023/06/04 02:22:55;;;;;;;5.35;4.30;;;14.60;99.90;;;;;;5018548;28;20019;-76
2023/06/04 02:25:21;;;;;;;6.82;4.40;;;14.60;99.90;;;;;;5037257;28;20051;-78
2023/06/04 02:27:47;;;;;;;11.05;5.15;;;14.60;99.90;;;;;;5019824;28;20109;-78
2023/06/04 02:30:13;;;;;;;6.55;4.85;;;14.60;99.90;;;;;;5037422;28;20029;-77
2023/06/04 02:32:39;;;;;;;7.80;4.22;;;14.60;99.90;;;;;;5020091;28;20184;-77
2023/06/04 02:35:05;;;;;;;5.07;4.55;;;14.60;99.90;;;;;;5037594;28;20018;-75
2023/06/04 02:37:30;;;;;;;8.25;4.55;;;14.50;99.90;;;;;;5036617;28;20017;-75
2023/06/04 02:39:56;;;;;;;5.43;4.78;;;14.60;99.90;;;;;;5019402;28;20075;-77
2023/06/04 02:42:22;;;;;;;7.40;4.88;;;14.50;99.90;;;;;;5036290;28;20029;-75
2023/06/04 02:44:47;;;;;;;5.97;4.70;;;14.40;99.90;;;;;;5035880;28;20485;-76
2023/06/04 02:47:13;;;;;;;8.13;5.07;;;14.30;99.90;;;;;;5035783;28;20025;-76
2023/06/04 02:49:38;;;;;;;6.75;4.55;;;14.30;99.90;;;;;;5018933;28;20029;-76
2023/06/04 02:52:04;;;;;;;4.90;4.13;;;14.30;99.90;;;;;;5019149;28;20112;-77
2023/06/04 02:54:30;;;;;;;7.65;4.25;;;14.30;99.90;;;;;;5036314;28;20028;-77
2023/06/04 02:56:56;;;;;;;4.75;3.83;;;14.30;99.90;;;;;;5036510;28;20026;-77
2023/06/04 02:59:22;;;;;;;6.07;3.70;;;14.30;99.90;;;;;;5018829;28;20025;-76
2023/06/04 03:01:48;;;;;;;5.25;4.15;;;14.10;99.90;;;;;;5037190;28;20025;-76
2023/06/04 03:04:15;;;;;;;5.25;3.40;;;14.10;99.90;;;;;;5019328;28;20093;-76
2023/06/04 03:06:44;;;;;;;5.25;4.00;;;14.10;99.90;;;;;;5019930;28;20402;-75
2023/06/04 03:09:11;;;;;;;5.75;3.78;;;14.00;99.90;;;;;;5037592;28;20052;-77
2023/06/04 03:11:37;;;;;;;6.60;4.00;;;14.00;99.90;;;;;;5020953;28;20052;-76
2023/06/04 03:14:03;;;;;;;4.97;3.60;;;13.90;99.90;;;;;;5037547;28;20470;-76
2023/06/04 03:16:28;;;;;;;5.75;4.18;;;13.80;99.90;;;;;;5037402;28;20052;-76
2023/06/04 03:18:54;;;;;;;4.97;3.65;;;13.70;99.90;;;;;;5037831;28;20052;-75
2023/06/04 03:21:19;;;;;;;9.68;4.22;;;13.90;99.90;;;;;;5019801;28;20085;-77
2023/06/04 03:23:45;;;;;;;4.82;4.00;;;14.00;99.90;;;;;;5020142;28;20086;-76
2023/06/04 03:26:12;;;;;;;5.13;3.85;;;14.00;99.90;;;;;;5037101;28;20026;-75
2023/06/04 03:28:38;;;;;;;6.07;4.00;;;14.00;99.90;;;;;;5019730;28;20025;-76
2023/06/04 03:31:04;;;;;;;5.13;3.60;;;14.20;99.90;;;;;;5037282;28;20049;-75
2023/06/04 03:33:30;;;;;;;7.35;3.60;;;14.10;99.90;;;;;;5037270;28;20021;-76
2023/06/04 03:35:58;;;;;;;4.35;3.45;;;14.20;99.90;;;;;;5019728;28;20049;-77
2023/06/04 03:38:25;;;;;;;5.38;3.50;;;14.20;99.90;;;;;;5037746;28;20076;-75
2023/06/04 03:40:52;;;;;;;5.55;4.05;;;14.20;99.90;;;;;;5037111;28;20106;-77
2023/06/04 03:43:18;;;;;;;5.07;3.90;;;14.30;99.90;;;;;;5019682;28;20025;-77
2023/06/04 03:45:44;;;;;;;5.85;3.83;;;14.40;99.90;;;;;;5037006;28;20033;-77
2023/06/04 03:48:10;;;;;;;3.72;3.25;;;14.60;99.90;;;;;;5017643;28;20394;-78
2023/06/04 03:50:36;;;;;;;4.78;3.70;;;14.60;99.90;;;;;;5029812;28;20538;-77
2023/06/04 03:53:04;;;;;;;4.78;3.50;;;14.80;99.90;;;;;;5030260;28;20025;-77
2023/06/04 03:55:32;;;;;;;6.22;4.03;;;14.80;99.90;;;;;;5049761;28;20033;-78
2023/06/04 03:57:58;;;;;;;5.38;3.83;;;14.90;99.90;;;;;;5031081;28;20025;-77
2023/06/04 04:00:23;;;;;;;4.07;3.33;;;15.00;99.90;;;;;;5048165;28;20025;-77
2023/06/04 04:02:49;;;;;;;4.55;3.13;;;15.20;99.90;;;;;;5029583;28;20102;-77
2023/06/04 04:05:15;;;;;;;6.55;4.18;;;15.10;99.90;;;;;;5031736;28;20032;-77
2023/06/04 04:07:41;;;;;;;6.93;3.72;;;15.10;99.90;;;;;;5033637;28;20029;-78
2023/06/04 04:10:07;;;;;;;5.85;3.80;;;15.10;99.90;;;;;;5052557;28;20041;-77
2023/06/04 04:12:33;;;;;;;9.02;4.40;;;15.10;99.90;;;;;;5050931;28;20014;-78
2023/06/04 04:14:59;;;;;;;9.27;4.22;;;15.10;99.90;;;;;;5049332;28;20032;-77
2023/06/04 04:17:25;;;;;;;4.93;3.70;;;15.20;99.90;;;;;;5031949;28;20029;-78
2023/06/04 04:19:51;;;;;;;6.40;4.20;;;15.10;99.90;;;;;;5036895;28;20045;-75
2023/06/04 04:22:17;;;;;;;7.72;4.53;;;15.10;99.90;;;;;;5036203;28;20481;-75
2023/06/04 04:24:43;;;;;;;7.20;4.28;;;15.10;99.90;;;;;;5035894;28;20056;-76
2023/06/04 04:27:12;;;;;;;10.10;4.95;;;15.00;99.90;;;;;;5036404;28;20386;-75
2023/06/04 04:29:38;;;;;;;7.63;4.55;;;15.10;99.90;;;;;;5033664;28;20101;-75
2023/06/04 04:32:10;;;;;;;5.78;4.68;;;15.10;99.90;;;;;;5034268;28;20081;-76
2023/06/04 04:34:51;;;;;;;6.13;4.88;;;15.00;99.90;;;;;;5018162;28;20026;-75
2023/06/04 04:37:17;;;;;;;7.05;4.63;;;15.10;99.90;;;;;;5017593;28;20033;-76
2023/06/04 04:39:42;;;;;;;5.20;4.60;;;15.20;99.90;;;;;;5035790;28;20041;-77
2023/06/04 04:42:08;;;;;;;5.40;4.68;;;15.30;99.90;;;;;;5035501;28;20057;-76
2023/06/04 04:44:33;;;;;;;5.55;4.75;;;15.20;99.90;;;;;;5017429;28;20175;-75
2023/06/04 04:46:59;;;;;;;7.47;5.22;;;15.20;99.90;;;;;;5017946;28;20033;-76
2023/06/04 04:49:25;;;;;;;6.65;4.88;;;15.10;99.90;;;;;;5035297;28;20029;-77
2023/06/04 04:51:51;;;;;;;7.65;4.90;;;15.10;99.90;;;;;;5016310;28;20022;-75
2023/06/04 04:54:16;;;;;;;9.63;5.93;;;15.10;99.90;;;;;;5035880;28;20037;-76
2023/06/04 04:56:42;;;;;;;5.85;4.78;;;15.20;99.90;;;;;;5017837;28;20040;-78
2023/06/04 04:59:08;;;;;;;7.20;5.07;;;15.10;99.90;;;;;;5035468;28;20501;-77
2023/06/04 05:01:33;;;;;;;5.40;4.68;;;15.20;99.90;;;;;;5035571;28;20026;-77
2023/06/04 05:03:59;;;;;;;7.65;4.95;;;15.20;99.90;;;;;;5014474;28;20037;-76
2023/06/04 05:06:24;;;;;;;7.88;5.03;;;15.30;99.90;;;;;;5007732;28;20493;-77
2023/06/04 05:08:50;;;;;;;5.57;4.15;;;15.30;99.90;;;;;;5015117;28;20057;-77
2023/06/04 05:11:16;;;;;;;6.15;4.53;;;16.40;99.90;;;;;;5015165;28;20478;-77
2023/06/04 05:13:42;;;;;;;11.65;5.60;;;17.60;99.90;;;;;;5016735;28;20022;-76
2023/06/04 05:16:07;;;;;;;5.13;4.40;;;18.00;99.90;;;;;;4998258;28;20037;-76
2023/06/04 05:18:34;;;;;;;5.22;4.68;;;17.90;99.90;;;;;;5017030;28;20056;-77
2023/06/04 05:21:00;;;;;;;4.60;3.92;;;17.90;99.90;;;;;;5015618;28;20385;-76
2023/06/04 05:23:34;;;;;;;6.22;4.53;;;18.10;99.90;;;;;;5034093;28;20030;-75
2023/06/04 05:26:01;;;;;;;4.45;4.05;;;18.00;99.90;;;;;;5032997;28;20430;-75
2023/06/04 05:28:27;;;;;;;6.03;4.38;;;17.70;99.90;;;;;;5015801;28;20021;-76
2023/06/04 05:30:58;;;;;;;5.63;4.57;;;17.60;99.90;;;;;;5034604;28;20021;-75
2023/06/04 05:33:24;;;;;;;7.00;4.70;;;17.60;99.90;;;;;;5034346;28;20099;-77
2023/06/04 05:35:51;;;;;;;6.65;4.25;;;18.10;99.90;;;;;;5016745;28;20052;-75
2023/06/04 05:38:20;;;;;;;4.93;4.43;;;17.90;99.90;;;;;;5033717;28;20079;-75
2023/06/04 05:40:47;;;;;;;8.35;4.10;;;17.70;99.90;;;;;;5034478;28;20022;-75
2023/06/04 05:43:13;;;;;;;5.30;4.20;;;17.70;99.90;;;;;;5016539;28;20026;-77
2023/06/04 05:45:38;;;;;;;6.55;4.70;;;17.50;99.90;;;;;;5046022;28;20051;-76
2023/06/04 05:48:05;;;;;;;6.00;4.32;;;18.00;99.90;;;;;;5036809;28;20025;-77
2023/06/04 05:50:31;;;;;;;6.88;4.28;;;18.30;99.90;;;;;;5055522;28;20025;-78
2023/06/04 05:52:57;;;;;;;6.57;3.92;;;18.60;99.90;;;;;;5054227;28;20048;-77
2023/06/04 05:55:23;;;;;;;6.22;4.38;;;18.60;99.90;;;;;;5025134;28;20029;-76
2023/06/04 05:57:51;;;;;;;8.05;4.40;;;18.40;99.90;;;;;;5017951;28;20663;-75
2023/06/04 06:00:17;;;;;;;6.07;4.38;;;18.60;99.90;;;;;;5036104;28;20024;-75
2023/06/04 06:02:43;;;;;;;5.63;3.95;;;18.40;99.90;;;;;;5034890;28;20092;-75
2023/06/04 06:05:09;;;;;;;7.05;4.65;;;18.50;99.90;;;;;;5016361;28;20028;-75
2023/06/04 06:07:35;;;;;;;6.50;4.53;;;18.50;99.90;;;;;;5018035;28;20029;-76
2023/06/04 06:10:01;;;;;;;5.75;4.80;;;18.50;99.90;;;;;;5034909;28;20397;-78
2023/06/04 06:12:27;;;;;;;6.32;4.55;;;18.30;99.90;;;;;;5042110;28;20032;-78
2023/06/04 06:14:52;;;;;;;4.95;4.22;;;18.00;99.90;;;;;;5041400;28;20029;-78
2023/06/04 06:17:18;;;;;;;5.97;4.25;;;17.80;99.90;;;;;;5023282;28;20093;-78
2023/06/04 06:19:44;;;;;;;5.40;4.25;;;17.60;99.90;;;;;;5023613;28;20064;-76
2023/06/04 06:22:10;;;;;;;7.60;4.60;;;17.60;99.90;;;;;;5024545;28;20025;-77
2023/06/04 06:24:36;;;;;;;6.45;5.20;;;17.60;99.90;;;;;;5041921;28;20033;-77
2023/06/04 06:27:01;;;;;;;6.40;4.43;;;17.70;99.90;;;;;;5039000;28;20032;-78
2023/06/04 06:29:27;;;;;;;5.40;4.13;;;17.80;99.90;;;;;;5041589;28;20021;-78
2023/06/04 06:31:52;;;;;;;6.25;4.63;;;17.70;99.90;;;;;;5041463;28;20017;-78
2023/06/04 06:34:18;;;;;;;9.85;5.80;;;17.70;99.90;;;;;;5040044;28;20099;-77
2023/06/04 06:36:44;;;;;;;14.85;5.28;;;17.70;99.90;;;;;;5038695;28;20021;-78
2023/06/04 06:39:10;;;;;;;10.75;5.30;;;17.80;99.90;;;;;;5022700;28;20033;-78
2023/06/04 06:41:38;;;;;;;7.03;5.22;;;17.80;99.90;;;;;;5020478;28;20037;-77
2023/06/04 06:44:05;;;;;;;7.32;5.30;;;17.80;99.90;;;;;;5022176;28;20030;-78
2023/06/04 06:46:30;;;;;;;8.45;5.40;;;18.00;99.90;;;;;;5040444;28;20061;-78
2023/06/04 06:48:56;;;;;;;8.30;4.53;;;18.10;99.90;;;;;;5040020;28;20017;-77
2023/06/04 06:51:22;;;;;;;6.70;4.70;;;18.10;99.90;;;;;;5036328;28;20521;-77
2023/06/04 06:53:50;;;;;;;5.60;4.63;;;18.20;99.90;;;;;;5018236;28;20041;-77
2023/06/04 06:56:17;;;;;;;7.03;4.35;;;18.30;99.90;;;;;;5019648;28;20029;-78
2023/06/04 06:58:44;;;;;;;5.35;4.63;;;18.30;99.90;;;;;;5018502;28;20112;-77
2023/06/04 07:01:10;;;;;;;7.00;5.18;;;18.60;99.90;;;;;;5039537;28;20022;-77
2023/06/04 07:03:36;;;;;;;5.55;4.30;;;18.50;99.90;;;;;;5023873;28;20031;-77
2023/06/04 07:06:01;;;;;;;7.88;4.35;;;18.70;99.90;;;;;;5023108;28;20061;-77
2023/06/04 07:08:28;;;;;;;5.75;3.97;;;18.90;99.90;;;;;;5022820;28;20025;-77
2023/06/04 07:10:54;;;;;;;5.22;3.70;;;19.00;99.90;;;;;;5040245;28;20028;-76
2023/06/04 07:13:19;;;;;;;4.47;4.07;;;19.00;99.90;;;;;;5041396;28;20026;-78
2023/06/04 07:15:45;;;;;;;4.95;3.72;;;19.10;98.80;;;;;;5040594;28;20033;-77
2023/06/04 07:18:11;;;;;;;3.35;3.05;;;19.30;99.50;;;;;;5040060;28;20060;-78
2023/06/04 07:20:36;;;;;;;4.78;2.75;;;19.70;97.70;;;;;;5022633;28;20026;-78
2023/06/04 07:23:02;;;;;;;7.00;2.72;;;19.70;94.40;;;;;;5022861;28;20405;-77
2023/06/04 07:25:29;;;;;;;5.00;2.92;;;19.70;93.40;;;;;;5038518;28;20133;-76
2023/06/04 07:27:57;;;;;;;3.22;2.70;;;19.90;94.00;;;;;;5037214;28;20049;-77
2023/06/04 07:30:24;;;;;;;6.45;3.42;;;20.00;93.70;;;;;;5021728;28;20112;-77
2023/06/04 07:32:50;;;;;;;3.88;3.00;;;20.20;92.30;;;;;;5039689;28;20028;-78
2023/06/04 07:35:16;;;;;;;3.83;2.67;;;20.60;91.60;;;;;;5040175;28;20057;-77
2023/06/04 07:37:44;;;;;;;3.92;2.83;;;20.90;91.40;;;;;;5021618;28;20143;-77
2023/06/04 07:40:10;;;;;;;4.75;2.58;;;21.00;91.00;;;;;;5021811;28;20477;-78
2023/06/04 07:42:36;;;;;;;3.78;3.03;;;21.20;90.60;;;;;;5039569;28;20513;-77
2023/06/04 07:45:03;;;;;;;4.55;3.10;;;21.40;90.20;;;;;;5039869;28;20043;-77
2023/06/04 07:47:29;;;;;;;4.35;2.90;;;21.60;90.80;;;;;;5021904;28;20040;-78
2023/06/04 07:49:54;;;;;;;3.75;3.00;;;21.70;87.30;;;;;;5022177;28;20477;-78
2023/06/04 07:52:20;;;;;;;6.63;2.92;;;21.60;85.60;;;;;;5040220;28;20026;-77
2023/06/04 07:54:46;;;;;;;4.10;3.10;;;21.50;85.70;;;;;;5039179;28;20030;-78
2023/06/04 07:57:12;;;;;;;6.90;3.90;;;21.20;87.90;;;;;;5021257;28;20029;-76
2023/06/04 07:59:38;;;;;;;5.20;3.50;;;21.30;87.50;;;;;;5021514;28;20029;-77
2023/06/04 08:02:03;;;;;;;5.38;2.75;;;21.50;87.70;;;;;;5039702;28;20114;-78
2023/06/04 08:04:29;;;;;;;6.28;4.38;;;21.60;87.30;;;;;;5039456;28;20034;-76
2023/06/04 08:06:55;;;;;;;5.00;3.20;;;21.60;85.60;;;;;;5039336;28;20025;-77
2023/06/04 08:09:21;;;;;;;3.75;2.67;;;21.50;85.30;;;;;;5038510;28;20022;-78
2023/06/04 08:11:47;;;;;;;7.22;4.35;;;21.70;85.50;;;;;;5020552;28;20044;-78
2023/06/04 08:14:13;;;;;;;6.75;3.45;;;21.80;84.60;;;;;;5021388;28;20045;-77
2023/06/04 08:16:40;;;;;;;7.10;3.72;;;21.60;84.60;;;;;;5038886;28;20029;-77
2023/06/04 08:19:07;;;;;;;4.40;2.42;;;21.50;85.20;;;;;;5021456;28;20032;-77
2023/06/04 08:21:34;;;;;;;4.85;2.70;;;21.60;87.40;;;;;;5021230;28;20036;-78
2023/06/04 08:24:00;;;;;;;3.60;2.20;;;21.50;85.70;;;;;;5038674;28;20104;-78
2023/06/04 08:26:26;;;;;;;4.50;2.50;;;21.20;85.30;;;;;;5020358;28;20521;-77
2023/06/04 08:28:53;;;;;;;2.55;2.22;;;21.20;86.20;;;;;;5021223;28;20017;-78
2023/06/04 08:31:19;;;;;;;3.33;2.30;;;21.20;87.70;;;;;;5038844;28;20474;-78
2023/06/04 08:33:48;;;;;;;4.40;2.22;;;21.20;88.10;;;;;;5038899;28;20056;-78
2023/06/04 08:36:15;;;;;;;3.03;2.15;;;21.10;87.00;;;;;;5020342;28;20026;-78
2023/06/04 08:38:41;;;;;;;5.55;2.97;;;21.00;89.20;;;;;;5017281;28;20029;-77
2023/06/04 08:41:15;;;;;;;4.80;2.60;;;21.10;89.90;;;;;;5035333;28;20033;-77
2023/06/04 08:43:43;;;;;;;5.90;2.60;;;21.00;88.20;;;;;;5034647;28;20109;-76
2023/06/04 08:46:09;;;;;;;5.20;2.47;;;21.10;88.70;;;;;;5015366;28;20400;-76
2023/06/04 08:48:37;;;;;;;3.40;2.97;;;21.00;88.50;;;;;;5032838;28;20022;-75
2023/06/04 08:51:08;;;;;;;3.22;2.92;;;21.20;90.10;;;;;;5015321;28;20490;-75
2023/06/04 08:53:34;;;;;;;6.22;3.20;;;21.30;89.10;;;;;;5032303;28;20521;-75
2023/06/04 08:56:00;;;;;;;7.70;2.42;;;21.40;88.50;;;;;;5032535;28;20030;-75
2023/06/04 08:58:27;;;;;;;4.72;2.80;;;21.50;87.40;;;;;;5032903;28;20036;-75
2023/06/04 09:00:53;;;;;;;4.63;2.65;;;21.60;86.30;;;;;;5032501;28;20017;-75
2023/06/04 09:03:21;;;;;;;3.65;2.38;;;21.40;86.80;;;;;;5014900;28;20501;-74
2023/06/04 09:05:49;;;;;;;6.07;2.55;;;21.20;87.60;;;;;;5014510;28;20053;-75
2023/06/04 09:08:18;;;;;;;3.25;2.75;;;20.80;88.00;;;;;;5014557;28;20044;-75
2023/06/04 09:10:46;;;;;;;4.00;2.15;;;20.80;89.20;;;;;;5015204;28;20433;-75
2023/06/04 09:13:15;;;;;;;5.25;2.58;;;20.90;89.70;;;;;;5032757;28;20056;-75
2023/06/04 09:15:40;;;;;;;2.97;2.67;;;21.00;88.30;;;;;;5032567;28;20026;-76
2023/06/04 09:18:06;;;;;;;3.25;2.47;;;20.80;88.40;;;;;;5031926;28;20068;-76
2023/06/04 09:20:32;;;;;;;4.53;3.05;;;20.80;89.70;;;;;;5032499;28;20079;-75
2023/06/04 09:22:58;;;;;;;7.13;2.40;;;20.60;90.30;;;;;;5032184;28;20036;-75
2023/06/04 09:25:25;;;;;;;4.25;2.55;;;20.40;90.90;;;;;;5032107;28;20033;-75
2023/06/04 09:27:51;;;;;;;4.55;2.40;;;20.30;90.90;;;;;;5032173;28;20486;-75
2023/06/04 09:30:17;;;;;;;7.03;3.10;;;20.30;91.10;;;;;;5032450;28;20053;-75
2023/06/04 09:32:43;;;;;;;4.75;2.75;;;20.30;92.00;;;;;;5032216;28;20497;-75
2023/06/04 09:35:15;;;;;;;5.25;2.40;;;20.40;91.70;;;;;;5032174;28;20045;-75
2023/06/04 09:37:42;;;;;;;3.03;2.20;;;20.50;91.40;;;;;;5031942;28;20387;-75
2023/06/04 09:40:09;;;;;;;5.85;2.80;;;20.80;90.90;;;;;;5032178;28;20028;-75
2023/06/04 09:42:55;;;;;;;3.80;2.70;;;20.80;90.20;;;;;;5014376;28;20022;-75
2023/06/04 09:45:28;;;;;;;;;;;20.90;90.70;;;;;;5032373;28;20083;-75
2023/06/04 09:47:54;;;;;;;4.68;2.15;;;21.10;90.50;;;;;;5014185;28;19967;-75
2023/06/04 09:50:30;;;;;;;2.95;2.00;;;21.20;90.30;;;;;;5032131;28;20671;-75
2023/06/04 09:52:56;;;;;;;3.33;2.28;;;21.20;88.80;;;;;;5014255;28;20060;-75
2023/06/04 09:55:22;;;;;;;2.85;2.17;;;21.30;88.20;;;;;;5031884;28;20040;-74
2023/06/04 09:57:49;;;;;;;2.47;2.10;;;21.40;88.20;;;;;;5031774;28;20026;-75
2023/06/04 10:00:20;;;;;;;5.95;2.70;;;21.50;86.80;;;;;;5031937;28;20032;-75
2023/06/04 10:02:47;;;;;;;3.08;2.47;;;21.60;87.10;;;;;;5031941;28;20025;-76
2023/06/04 10:05:14;;;;;;;7.75;2.42;;;21.70;87.80;;;;;;5031715;28;20033;-75
2023/06/04 10:07:44;;;;;;;3.50;2.50;;;21.80;86.40;;;;;;5013778;28;20505;-75
2023/06/04 10:10:16;;;;;;;7.65;2.25;;;21.80;86.60;;;;;;5014004;28;20036;-76
2023/06/04 10:12:42;;;;;;;3.50;2.33;;;21.90;86.40;;;;;;5031719;28;20083;-75
2023/06/04 10:15:12;;;;;;;3.60;2.20;;;22.10;85.80;;;;;;5031586;28;20100;-76
2023/06/04 10:17:38;;;;;;;4.22;1.90;;;22.00;84.30;;;;;;5031492;28;20049;-76
2023/06/04 10:20:05;;;;;;;6.63;2.58;;;22.00;83.50;;;;;;5023015;28;20022;-76
2023/06/04 10:22:32;;;;;;;3.58;2.50;;;21.80;84.30;;;;;;5002235;28;20032;-75
2023/06/04 10:25:00;;;;;;;4.78;2.20;;;21.90;83.10;;;;;;5021309;28;20021;-76
2023/06/04 10:27:26;;;;;;;5.20;2.17;;;22.20;81.30;;;;;;5017010;28;20038;-77
2023/06/04 10:29:52;;;;;;;4.30;2.80;;;22.20;82.80;;;;;;5014062;28;20022;-77
2023/06/04 10:32:19;;;;;;;4.10;2.60;;;22.40;82.10;;;;;;4995515;28;20023;-76
2023/06/04 10:34:46;;;;;;;4.85;2.22;;;22.50;80.90;;;;;;4995003;28;20745;-76
2023/06/04 10:37:32;;;;;;;4.82;2.42;;;22.60;78.80;;;;;;5015600;28;20022;-76
2023/06/04 10:39:58;;;;;;;3.38;2.65;;;22.80;78.10;;;;;;5015212;28;20065;-75
2023/06/04 10:42:25;;;;;;;4.82;2.40;;;22.80;78.70;;;;;;4998007;28;20372;-75
2023/06/04 10:44:54;;;;;;;4.47;2.38;;;22.90;78.60;;;;;;5015773;28;20045;-78
2023/06/04 10:47:33;;;;;;;5.40;2.40;;;22.80;78.40;;;;;;5000343;28;20483;-76
2023/06/04 10:50:12;;;;;;;6.47;2.20;;;22.90;79.90;;;;;;5016105;28;20463;-77
2023/06/04 10:52:50;;;;;;;3.33;2.13;;;22.90;79.10;;;;;;5016704;28;20029;-76
2023/06/04 10:55:15;;;;;;;4.25;2.42;;;22.80;79.20;;;;;;5017874;28;20112;-77
2023/06/04 10:57:54;;;;;;;4.40;2.28;;;22.70;79.60;;;;;;5000468;28;20103;-77
2023/06/04 11:00:21;;;;;;;5.20;2.20;;;22.70;78.90;;;;;;5000757;28;20532;-76
2023/06/04 11:02:55;;;;;;;3.47;2.22;;;23.00;76.50;;;;;;5019409;28;20021;-78
2023/06/04 11:05:21;;;;;;;3.17;2.20;;;23.00;77.90;;;;;;5016166;28;20105;-76
2023/06/04 11:07:48;;;;;;;2.55;2.28;;;22.80;76.90;;;;;;4999365;28;20061;-76
2023/06/04 11:10:15;;;;;;;2.30;2.10;;;22.90;77.10;;;;;;5019509;28;20018;-77
2023/06/04 11:12:50;;;;;;;3.90;2.45;;;22.90;76.60;;;;;;5018769;28;20092;-77
2023/06/04 11:15:16;;;;;;;2.55;2.33;;;23.10;76.10;;;;;;5015035;28;20026;-77
2023/06/04 11:17:53;;;;;;;2.17;1.98;;;23.00;77.30;;;;;;4997470;28;20521;-76
2023/06/04 11:20:20;;;;;;;5.20;2.38;;;22.90;77.40;;;;;;5014790;28;20498;-76
2023/06/04 11:22:52;;;;;;;2.90;2.65;;;22.80;79.40;;;;;;4997568;28;20025;-77
2023/06/04 11:25:18;;;;;;;2.55;2.30;;;23.10;77.70;;;;;;5000139;28;20076;-77
2023/06/04 11:27:44;;;;;;;6.10;2.40;;;23.30;77.00;;;;;;5018458;28;20026;-77
2023/06/04 11:30:12;;;;;;;3.22;2.40;;;23.30;77.20;;;;;;5000461;28;20117;-77
2023/06/04 11:32:37;;;;;;;4.97;2.58;;;23.10;80.30;;;;;;5001340;28;20054;-77
2023/06/04 11:35:07;;;;;;;6.45;2.30;;;23.20;80.20;;;;;;5018370;28;20034;-77
2023/06/04 11:37:33;;;;;;;3.42;2.55;;;23.40;80.10;;;;;;5018460;28;20037;-77
2023/06/04 11:40:00;;;;;;;3.05;2.58;;;23.50;80.20;;;;;;5016848;28;20662;-77
2023/06/04 11:42:29;;;;;;;4.78;2.30;;;23.60;77.30;;;;;;4997739;28;20496;-77
2023/06/04 11:44:56;;;;;;;3.22;2.38;;;23.40;79.80;;;;;;5017393;28;20042;-77
2023/06/04 11:47:23;;;;;;;3.10;2.38;;;23.30;79.80;;;;;;4999570;28;20052;-77
2023/06/04 11:49:57;;;;;;;2.63;2.42;;;23.40;80.90;;;;;;5017098;28;20026;-77
2023/06/04 11:52:23;;;;;;;5.80;2.53;;;23.40;79.70;;;;;;5014564;28;20022;-77
2023/06/04 11:54:49;;;;;;;3.90;2.00;;;23.60;82.70;;;;;;5014271;28;20022;-76
2023/06/04 11:57:15;;;;;;;4.75;2.45;;;23.80;81.30;;;;;;5014681;28;20080;-77
2023/06/04 11:59:41;;;;;;;4.32;2.33;;;24.00;78.80;;;;;;4997358;28;20079;-76
2023/06/04 12:02:07;;;;;;;4.43;3.13;;;24.00;80.60;;;;;;5014419;28;20030;-76
2023/06/04 12:04:33;;;;;;;10.13;2.55;;;24.10;79.40;;;;;;5014188;28;20106;-76
2023/06/04 12:07:02;;;;;;;6.13;2.97;;;24.00;78.50;;;;;;5016758;28;20068;-77
2023/06/04 12:09:36;;;;;;;3.42;2.60;;;24.10;78.90;;;;;;5016307;28;20041;-77
2023/06/04 12:12:06;;;;;;;3.35;2.35;;;24.30;79.80;;;;;;4999797;28;20060;-77
2023/06/04 12:14:32;;;;;;;4.75;2.40;;;24.50;79.30;;;;;;5014483;28;20017;-76
2023/06/04 12:17:00;;;;;;;2.03;1.85;;;24.40;76.80;;;;;;4996625;28;20542;-76
2023/06/04 12:19:26;;;;;;;2.70;2.50;;;24.20;78.30;;;;;;5013786;28;20030;-77
2023/06/04 12:22:19;;;;;;;5.15;2.53;;;24.10;78.50;;;;;;5013712;28;20025;-78
2023/06/04 12:24:56;;;;;;;2.78;2.33;;;23.90;78.90;;;;;;4998150;28;20494;-78
2023/06/04 12:27:23;;;;;;;2.80;2.30;;;23.90;79.30;;;;;;4998330;28;20033;-77
2023/06/04 12:30:03;;;;;;;9.80;3.05;;;23.80;80.10;;;;;;4998726;28;20022;-77
2023/06/04 12:32:29;;;;;;;3.03;2.60;;;23.90;80.80;;;;;;5015768;28;20553;-77
2023/06/04 12:34:55;;;;;;;5.63;2.40;;;23.80;81.30;;;;;;5014225;28;20057;-78
2023/06/04 12:37:25;;;;;;;4.60;2.05;;;23.80;81.00;;;;;;5013914;28;20030;-76
2023/06/04 12:39:51;;;;;;;2.72;2.53;;;23.90;80.70;;;;;;5013628;28;20022;-76
2023/06/04 12:42:18;;;;;;;3.60;2.40;;;24.00;80.00;;;;;;4996403;28;20022;-77
2023/06/04 12:44:44;;;;;;;3.97;2.30;;;24.10;78.50;;;;;;4996236;28;20493;-77
2023/06/04 12:47:10;;;;;;;2.83;2.28;;;23.90;78.80;;;;;;5013582;28;20033;-77